createdAt,value
2019-05-18T00:00:13.372Z,21.57
2019-05-18T00:02:43.934Z,22.65
2019-05-18T00:05:15.198Z,21.73
2019-05-18T00:07:46.406Z,22.05
2019-05-18T00:10:16.761Z,21.50
2019-05-18T00:12:47.228Z,22.77
2019-05-18T00:15:17.855Z,22.87
2019-05-18T00:17:48.190Z,24.12
2019-05-18T00:20:18.544Z,22.35
2019-05-18T00:22:48.883Z,22.90
2019-05-18T00:25:19.607Z,21.52
2019-05-18T00:27:49.915Z,22.22
2019-05-18T00:30:20.426Z,21.63
2019-05-18T00:32:50.679Z,21.65
2019-05-18T00:35:21.100Z,21.40
2019-05-18T00:37:51.293Z,23.27
2019-05-18T00:40:21.608Z,22.13
2019-05-18T00:42:52.071Z,21.95
2019-05-18T00:45:22.341Z,21.75
2019-05-18T00:47:52.617Z,21.40
2019-05-18T00:50:23.077Z,22.82
2019-05-18T00:52:53.276Z,21.30
2019-05-18T00:55:23.793Z,21.20
2019-05-18T00:57:54.249Z,22.13
2019-05-18T01:00:25.465Z,22.00
2019-05-18T01:02:55.717Z,22.52
2019-05-18T01:05:25.984Z,20.92
2019-05-18T01:07:57.357Z,20.45
2019-05-18T01:10:29.359Z,20.82
2019-05-18T01:12:59.641Z,21.10
2019-05-18T01:15:30.056Z,21.42
2019-05-18T01:18:02.333Z,21.17
2019-05-18T01:20:32.467Z,20.20
2019-05-18T01:23:02.987Z,20.92
2019-05-18T01:25:34.423Z,19.85
2019-05-18T01:28:04.918Z,19.65
2019-05-18T01:30:35.479Z,21.33
2019-05-18T01:33:05.812Z,20.50
2019-05-18T01:35:36.077Z,20.08
2019-05-18T01:38:07.712Z,21.25
2019-05-18T01:40:38.271Z,20.88
2019-05-18T01:43:08.505Z,21.33
2019-05-18T01:45:38.739Z,20.75
2019-05-18T01:48:13.708Z,20.43
2019-05-18T01:50:41.164Z,20.45
2019-05-18T01:53:11.323Z,20.77
2019-05-18T01:55:41.571Z,19.35
2019-05-18T01:58:11.825Z,20.50
2019-05-18T02:00:42.482Z,21.07
2019-05-18T02:03:12.744Z,20.70
2019-05-18T02:05:43.021Z,21.00
2019-05-18T02:08:13.380Z,21.68
2019-05-18T02:10:43.895Z,22.45
2019-05-18T02:13:14.091Z,20.08
2019-05-18T02:15:44.383Z,21.45
2019-05-18T02:18:28.147Z,20.40
2019-05-18T02:20:46.906Z,21.10
2019-05-18T02:23:17.668Z,22.00
2019-05-18T02:25:47.972Z,20.35
2019-05-18T02:28:18.266Z,20.63
2019-05-18T02:30:48.567Z,21.82
2019-05-18T02:33:19.449Z,21.23
2019-05-18T02:35:49.784Z,21.07
2019-05-18T02:38:20.232Z,21.42
2019-05-18T02:40:50.813Z,20.52
2019-05-18T02:43:21.115Z,21.48
2019-05-18T02:45:51.395Z,20.55
2019-05-18T02:48:21.691Z,21.62
2019-05-18T02:50:52.136Z,21.12
2019-05-18T02:53:22.571Z,22.58
2019-05-18T02:55:53.545Z,21.45
2019-05-18T02:58:23.932Z,21.30
2019-05-18T03:00:54.262Z,21.37
2019-05-18T03:03:24.795Z,21.37
2019-05-18T03:05:55.251Z,20.80
2019-05-18T03:08:25.715Z,21.62
2019-05-18T03:10:57.489Z,20.70
2019-05-18T03:13:27.731Z,21.60
2019-05-18T03:15:58.044Z,21.87
2019-05-18T03:18:28.368Z,21.67
2019-05-18T03:20:58.682Z,22.80
2019-05-18T03:23:29.376Z,22.30
2019-05-18T03:25:59.863Z,21.73
2019-05-18T03:28:30.114Z,23.40
2019-05-18T03:31:00.519Z,23.57
2019-05-18T03:33:31.123Z,24.15
2019-05-18T03:36:01.555Z,25.25
2019-05-18T03:38:31.854Z,23.42
2019-05-18T03:41:02.207Z,24.05
2019-05-18T03:43:32.497Z,27.35
2019-05-18T03:46:02.982Z,27.82
2019-05-18T03:48:33.271Z,26.42
2019-05-18T03:51:03.545Z,29.20
2019-05-18T03:53:35.271Z,27.90
2019-05-18T03:56:06.549Z,29.63
2019-05-18T03:58:36.901Z,27.87
2019-05-18T04:01:07.209Z,28.10
2019-05-18T04:03:37.590Z,26.77
2019-05-18T04:06:08.079Z,27.50
2019-05-18T04:08:38.359Z,27.00
2019-05-18T04:11:08.720Z,27.82
2019-05-18T04:13:39.050Z,30.75
2019-05-18T04:16:09.509Z,29.98
2019-05-18T04:18:39.799Z,29.30
2019-05-18T04:21:10.197Z,30.10
2019-05-18T04:23:40.789Z,29.90
2019-05-18T04:26:11.166Z,33.65
2019-05-18T04:28:41.548Z,36.40
2019-05-18T04:31:11.978Z,35.60
2019-05-18T04:33:42.296Z,32.73
2019-05-18T04:36:13.793Z,29.87
2019-05-18T04:38:45.161Z,25.77
2019-05-18T04:41:15.464Z,25.70
2019-05-18T04:43:45.767Z,23.57
2019-05-18T04:46:16.078Z,20.17
2019-05-18T04:48:46.323Z,19.10
2019-05-18T04:51:16.626Z,18.27
2019-05-18T04:53:46.976Z,17.67
2019-05-18T04:56:17.662Z,16.65
2019-05-18T04:58:48.053Z,11.25
2019-05-18T05:01:19.048Z,11.25
2019-05-18T05:03:49.535Z,11.20
2019-05-18T05:06:20.476Z,10.20
2019-05-18T05:08:50.871Z,9.90
2019-05-18T05:11:21.474Z,8.73
2019-05-18T05:13:51.730Z,9.60
2019-05-18T05:16:23.513Z,9.35
2019-05-18T05:18:53.808Z,8.48
2019-05-18T05:21:24.217Z,8.98
2019-05-18T05:23:54.383Z,10.25
2019-05-18T05:26:24.735Z,9.65
2019-05-18T05:28:55.006Z,10.23
2019-05-18T05:31:25.304Z,11.28
2019-05-18T05:33:55.571Z,11.88
2019-05-18T05:36:26.246Z,12.07
2019-05-18T05:38:56.668Z,11.70
2019-05-18T05:41:27.998Z,11.18
2019-05-18T05:43:58.649Z,10.80
2019-05-18T05:46:29.152Z,10.63
2019-05-18T05:48:59.705Z,10.45
2019-05-18T05:51:30.066Z,10.80
2019-05-18T05:54:00.498Z,11.00
2019-05-18T05:56:30.729Z,11.48
2019-05-18T05:59:01.513Z,11.88
2019-05-18T06:01:31.800Z,11.07
2019-05-18T06:04:02.101Z,10.13
2019-05-18T06:06:32.350Z,10.70
2019-05-18T06:09:03.024Z,11.45
2019-05-18T06:11:37.529Z,10.08
2019-05-18T06:14:07.792Z,10.00
2019-05-18T06:16:38.117Z,10.68
2019-05-18T06:19:08.518Z,11.33
2019-05-18T06:21:38.869Z,11.33
2019-05-18T06:24:10.187Z,11.73
2019-05-18T06:26:40.447Z,12.10
2019-05-18T06:29:10.942Z,13.55
2019-05-18T06:31:41.195Z,13.00
2019-05-18T06:34:11.455Z,13.77
2019-05-18T06:36:41.708Z,12.75
2019-05-18T06:39:12.146Z,13.17
2019-05-18T06:41:42.981Z,13.45
2019-05-18T06:44:13.275Z,15.63
2019-05-18T06:46:43.658Z,15.40
2019-05-18T06:49:13.910Z,16.07
2019-05-18T06:51:44.267Z,15.45
2019-05-18T06:54:14.642Z,17.12
2019-05-18T06:56:45.138Z,17.00
2019-05-18T06:59:16.564Z,18.33
2019-05-18T07:01:47.621Z,16.85
2019-05-18T07:04:17.869Z,15.30
2019-05-18T07:06:48.126Z,15.85
2019-05-18T07:09:18.484Z,16.25
2019-05-18T07:11:49.220Z,16.73
2019-05-18T07:14:25.899Z,16.07
2019-05-18T07:16:51.477Z,17.00
2019-05-18T07:19:22.130Z,15.30
2019-05-18T07:21:52.726Z,15.53
2019-05-18T07:24:23.004Z,15.63
2019-05-18T07:26:53.424Z,16.02
2019-05-18T07:29:23.710Z,15.43
2019-05-18T07:31:54.422Z,15.70
2019-05-18T07:34:26.827Z,16.32
2019-05-18T07:36:57.625Z,17.25
2019-05-18T07:39:28.212Z,15.70
2019-05-18T07:41:58.446Z,16.95
2019-05-18T07:44:28.992Z,17.95
2019-05-18T07:46:59.800Z,17.25
2019-05-18T07:49:31.272Z,17.10
2019-05-18T07:52:01.602Z,17.85
2019-05-18T07:54:32.339Z,16.07
2019-05-18T07:57:02.665Z,14.70
2019-05-18T07:59:32.946Z,16.52
2019-05-18T08:02:03.204Z,15.48
2019-05-18T08:04:33.649Z,17.17
2019-05-18T08:07:03.959Z,15.45
2019-05-18T08:09:34.327Z,16.02
2019-05-18T08:12:05.340Z,16.62
2019-05-18T08:14:35.655Z,16.77
2019-05-18T08:17:06.005Z,14.58
2019-05-18T08:19:36.438Z,15.43
2019-05-18T08:22:06.703Z,16.42
2019-05-18T08:24:37.774Z,14.83
2019-05-18T08:27:08.151Z,15.65
2019-05-18T08:29:39.036Z,15.45
2019-05-18T08:32:09.342Z,16.10
2019-05-18T08:34:39.663Z,15.70
2019-05-18T08:37:10.967Z,16.55
2019-05-18T08:39:41.293Z,16.70
2019-05-18T08:42:11.489Z,16.42
2019-05-18T08:44:41.963Z,15.72
2019-05-18T08:47:12.915Z,16.23
2019-05-18T08:49:43.278Z,15.70
2019-05-18T08:52:13.505Z,17.55
2019-05-18T08:54:44.397Z,16.27
2019-05-18T08:57:14.652Z,16.75
2019-05-18T08:59:44.882Z,16.32
2019-05-18T09:02:15.674Z,16.20
2019-05-18T09:04:45.985Z,16.80
2019-05-18T09:07:16.239Z,15.58
2019-05-18T09:09:46.546Z,12.80
2019-05-18T09:12:17.178Z,11.03
2019-05-18T09:14:47.534Z,12.68
2019-05-18T09:17:18.242Z,11.75
2019-05-18T09:19:49.858Z,10.68
2019-05-18T09:22:23.129Z,11.18
2019-05-18T09:24:52.383Z,11.35
2019-05-18T09:27:24.243Z,9.83
2019-05-18T09:29:54.538Z,10.25
2019-05-18T09:32:24.746Z,9.70
2019-05-18T09:34:55.058Z,8.48
2019-05-18T09:37:25.533Z,9.43
2019-05-18T09:39:55.824Z,8.55
2019-05-18T09:42:26.079Z,8.35
2019-05-18T09:44:56.359Z,7.95
2019-05-18T09:47:26.718Z,8.25
2019-05-18T09:49:57.037Z,8.38
2019-05-18T09:52:44.035Z,8.25
2019-05-18T09:54:59.165Z,7.03
2019-05-18T09:57:29.396Z,7.60
2019-05-18T09:59:59.586Z,7.55
2019-05-18T10:02:29.839Z,7.70
2019-05-18T10:05:00.135Z,7.03
2019-05-18T10:07:32.494Z,7.60
2019-05-18T10:10:02.751Z,7.33
2019-05-18T10:12:33.079Z,7.67
2019-05-18T10:15:03.574Z,7.72
2019-05-18T10:17:34.289Z,8.63
2019-05-18T10:20:04.606Z,7.97
2019-05-18T10:22:34.859Z,8.50
2019-05-18T10:25:06.501Z,9.03
2019-05-18T10:27:36.796Z,8.30
2019-05-18T10:30:07.777Z,8.40
2019-05-18T10:32:38.418Z,8.63
2019-05-18T10:35:09.908Z,8.80
2019-05-18T10:37:40.140Z,8.10
2019-05-18T10:40:11.228Z,8.53
2019-05-18T10:42:41.478Z,8.28
2019-05-18T10:45:12.852Z,9.23
2019-05-18T10:47:43.459Z,8.98
2019-05-18T10:50:14.574Z,8.78
2019-05-18T10:52:46.049Z,9.65
2019-05-18T10:55:16.775Z,10.23
2019-05-18T10:57:47.143Z,8.55
2019-05-18T11:00:18.945Z,9.63
2019-05-18T11:02:49.270Z,9.35
2019-05-18T11:05:19.850Z,10.58
2019-05-18T11:07:50.136Z,10.08
2019-05-18T11:10:21.782Z,9.85
2019-05-18T11:12:52.107Z,9.90
2019-05-18T11:15:23.183Z,8.88
2019-05-18T11:17:53.472Z,10.03
2019-05-18T11:20:24.082Z,9.95
2019-05-18T11:22:54.326Z,10.03
2019-05-18T11:25:25.072Z,10.53
2019-05-18T11:27:55.306Z,9.18
2019-05-18T11:30:25.596Z,10.05
2019-05-18T11:32:56.018Z,10.58
2019-05-18T11:35:26.942Z,10.45
2019-05-18T11:37:57.599Z,10.85
2019-05-18T11:40:27.873Z,10.13
2019-05-18T11:42:58.459Z,11.05
2019-05-18T11:45:29.208Z,10.55
2019-05-18T11:47:59.470Z,10.48
2019-05-18T11:50:29.779Z,10.10
2019-05-18T11:53:00.826Z,11.20
2019-05-18T11:55:31.395Z,10.30
2019-05-18T11:58:01.667Z,10.88
2019-05-18T12:00:32.163Z,9.88
2019-05-18T12:03:02.424Z,10.38
2019-05-18T12:05:33.521Z,9.35
2019-05-18T12:08:03.788Z,10.25
2019-05-18T12:10:34.261Z,9.85
2019-05-18T12:13:04.583Z,10.40
2019-05-18T12:15:35.339Z,10.65
2019-05-18T12:18:05.606Z,10.08
2019-05-18T12:20:36.167Z,10.23
2019-05-18T12:23:08.517Z,10.90
2019-05-18T12:25:38.323Z,10.58
2019-05-18T12:28:08.593Z,10.80
2019-05-18T12:30:38.953Z,10.23
2019-05-18T12:33:09.192Z,10.40
2019-05-18T12:35:39.432Z,10.10
2019-05-18T12:38:10.376Z,10.23
2019-05-18T12:40:41.654Z,10.23
2019-05-18T12:43:11.940Z,10.40
2019-05-18T12:45:42.918Z,9.90
2019-05-18T12:48:13.179Z,9.73
2019-05-18T12:50:43.529Z,9.75
2019-05-18T12:53:14.207Z,9.93
2019-05-18T12:55:46.203Z,10.08
2019-05-18T12:58:16.807Z,9.45
2019-05-18T13:00:47.132Z,10.20
2019-05-18T13:03:18.994Z,9.63
2019-05-18T13:05:49.971Z,10.28
2019-05-18T13:08:20.269Z,10.10
2019-05-18T13:10:50.975Z,10.93
2019-05-18T13:13:21.234Z,11.18
2019-05-18T13:15:52.082Z,10.70
2019-05-18T13:18:26.317Z,10.40
2019-05-18T13:20:56.544Z,10.38
2019-05-18T13:23:27.237Z,9.78
2019-05-18T13:25:57.521Z,9.85
2019-05-18T13:28:27.785Z,9.68
2019-05-18T13:30:58.047Z,10.08
2019-05-18T13:33:28.263Z,9.68
2019-05-18T13:35:58.577Z,10.08
2019-05-18T13:38:29.263Z,10.18
2019-05-18T13:40:59.812Z,9.35
2019-05-18T13:43:29.970Z,10.13
2019-05-18T13:46:00.539Z,9.78
2019-05-18T13:48:30.783Z,10.40
2019-05-18T13:51:01.051Z,10.40
2019-05-18T13:53:31.297Z,9.53
2019-05-18T13:56:01.555Z,9.38
2019-05-18T13:58:31.863Z,9.08
2019-05-18T14:01:02.447Z,8.80
2019-05-18T14:03:32.710Z,8.65
2019-05-18T14:06:04.032Z,8.35
2019-05-18T14:08:35.310Z,8.60
2019-05-18T14:11:05.829Z,8.65
2019-05-18T14:13:36.220Z,7.65
2019-05-18T14:16:06.543Z,8.43
2019-05-18T14:18:36.892Z,7.50
2019-05-18T14:21:07.411Z,7.75
2019-05-18T14:23:37.581Z,7.60
2019-05-18T14:26:07.927Z,8.13
2019-05-18T14:28:38.594Z,8.28
2019-05-18T14:31:08.850Z,7.42
2019-05-18T14:33:39.340Z,8.03
2019-05-18T14:36:09.638Z,7.53
2019-05-18T14:38:40.114Z,7.72
2019-05-18T14:41:10.376Z,8.10
2019-05-18T14:43:41.809Z,7.85
2019-05-18T14:46:12.546Z,8.13
2019-05-18T14:48:42.820Z,7.67
2019-05-18T14:51:13.222Z,8.13
2019-05-18T14:53:43.478Z,7.60
2019-05-18T14:56:13.740Z,7.70
2019-05-18T14:58:44.139Z,7.97
2019-05-18T15:01:14.409Z,7.30
2019-05-18T15:03:45.669Z,7.80
2019-05-18T15:06:15.923Z,7.15
2019-05-18T15:08:47.402Z,8.05
2019-05-18T15:11:17.650Z,7.53
2019-05-18T15:13:48.130Z,7.22
2019-05-18T15:16:19.038Z,7.75
2019-05-18T15:18:49.362Z,7.45
2019-05-18T15:21:19.638Z,7.47
2019-05-18T15:23:50.108Z,7.17
2019-05-18T15:26:20.358Z,7.50
2019-05-18T15:28:50.796Z,7.15
2019-05-18T15:31:23.808Z,7.42
2019-05-18T15:33:53.102Z,7.45
2019-05-18T15:36:23.405Z,7.30
2019-05-18T15:38:53.699Z,7.60
2019-05-18T15:41:24.386Z,6.78
2019-05-18T15:43:54.786Z,7.45
2019-05-18T15:46:25.165Z,7.05
2019-05-18T15:48:55.921Z,6.75
2019-05-18T15:51:26.186Z,7.45
2019-05-18T15:53:57.226Z,6.75
2019-05-18T15:56:29.019Z,6.60
2019-05-18T15:58:59.634Z,6.35
2019-05-18T16:01:30.669Z,6.37
2019-05-18T16:04:01.122Z,6.58
2019-05-18T16:06:33.808Z,6.03
2019-05-18T16:09:04.988Z,5.05
2019-05-18T16:11:35.453Z,5.60
2019-05-18T16:14:06.037Z,5.35
2019-05-18T16:16:36.511Z,6.12
2019-05-18T16:19:09.114Z,5.62
2019-05-18T16:21:39.375Z,5.92
2019-05-18T16:24:10.011Z,5.40
2019-05-18T16:26:40.304Z,5.62
2019-05-18T16:29:10.599Z,6.25
2019-05-18T16:31:41.281Z,7.10
2019-05-18T16:34:11.623Z,6.25
2019-05-18T16:36:41.934Z,10.15
2019-05-18T16:39:12.351Z,9.75
2019-05-18T16:41:42.669Z,6.03
2019-05-18T16:44:12.923Z,6.87
2019-05-18T16:46:43.823Z,5.80
2019-05-18T16:49:14.229Z,5.90
2019-05-18T16:51:45.535Z,5.80
2019-05-18T16:54:15.813Z,6.92
2019-05-18T16:56:46.123Z,7.47
2019-05-18T16:59:16.365Z,6.70
2019-05-18T17:01:46.827Z,7.22
2019-05-18T17:04:17.107Z,6.97
2019-05-18T17:06:47.357Z,6.72
2019-05-18T17:09:18.909Z,7.10
2019-05-18T17:11:49.735Z,6.58
2019-05-18T17:14:20.595Z,7.08
2019-05-18T17:16:52.096Z,7.10
2019-05-18T17:19:22.349Z,7.60
2019-05-18T17:21:53.499Z,8.18
2019-05-18T17:24:23.912Z,8.03
2019-05-18T17:26:54.495Z,8.18
2019-05-18T17:29:24.832Z,8.30
2019-05-18T17:31:56.149Z,7.97
2019-05-18T17:34:26.326Z,8.70
2019-05-18T17:36:56.598Z,8.50
2019-05-18T17:39:27.183Z,9.25
2019-05-18T17:41:57.523Z,9.90
2019-05-18T17:44:27.785Z,10.15
2019-05-18T17:46:58.402Z,11.78
2019-05-18T17:49:28.766Z,10.00
2019-05-18T17:52:00.356Z,9.55
2019-05-18T17:54:31.397Z,9.73
2019-05-18T17:57:08.347Z,9.00
2019-05-18T17:59:34.539Z,9.65
2019-05-18T18:02:05.007Z,10.70
2019-05-18T18:04:35.535Z,10.50
2019-05-18T18:07:05.893Z,10.10
2019-05-18T18:09:36.199Z,10.35
2019-05-18T18:12:06.876Z,10.90
2019-05-18T18:14:38.195Z,10.60
2019-05-18T18:17:08.728Z,11.08
2019-05-18T18:19:39.216Z,10.55
2019-05-18T18:22:09.827Z,9.95
2019-05-18T18:24:40.308Z,10.90
2019-05-18T18:27:24.159Z,10.03
2019-05-18T18:29:42.537Z,10.15
2019-05-18T18:32:12.770Z,10.25
2019-05-18T18:34:43.284Z,10.25
2019-05-18T18:37:13.541Z,11.50
2019-05-18T18:39:43.718Z,11.22
2019-05-18T18:42:13.990Z,10.35
2019-05-18T18:44:44.335Z,11.40
2019-05-18T18:47:14.621Z,10.88
2019-05-18T18:49:44.919Z,10.82
2019-05-18T18:52:15.542Z,12.45
2019-05-18T18:54:45.867Z,12.33
2019-05-18T18:57:18.254Z,11.78
2019-05-18T18:59:48.531Z,12.53
2019-05-18T19:02:18.976Z,12.47
2019-05-18T19:04:49.723Z,12.58
2019-05-18T19:07:19.962Z,12.93
2019-05-18T19:09:50.182Z,13.22
2019-05-18T19:12:20.488Z,12.18
2019-05-18T19:14:50.918Z,12.50
2019-05-18T19:17:21.193Z,12.40
2019-05-18T19:19:51.494Z,13.03
2019-05-18T19:22:21.992Z,12.33
2019-05-18T19:24:55.494Z,12.53
2019-05-18T19:27:24.276Z,12.37
2019-05-18T19:29:54.530Z,12.20
2019-05-18T19:32:24.835Z,11.63
2019-05-18T19:34:55.179Z,11.97
2019-05-18T19:37:26.531Z,11.83
2019-05-18T19:39:56.927Z,12.73
2019-05-18T19:42:27.362Z,11.80
2019-05-18T19:44:58.810Z,12.28
2019-05-18T19:47:29.093Z,12.93
2019-05-18T19:49:59.866Z,11.48
2019-05-18T19:52:33.672Z,12.30
2019-05-18T19:55:04.346Z,11.53
2019-05-18T19:57:34.581Z,11.75
2019-05-18T20:00:05.198Z,11.97
2019-05-18T20:02:37.128Z,11.65
2019-05-18T20:05:09.315Z,10.75
2019-05-18T20:07:39.912Z,11.10
2019-05-18T20:10:11.170Z,12.33
2019-05-18T20:12:41.488Z,11.78
2019-05-18T20:15:12.775Z,11.20
2019-05-18T20:17:43.358Z,11.63
2019-05-18T20:20:14.616Z,11.65
2019-05-18T20:22:44.927Z,11.50
2019-05-18T20:25:15.298Z,11.75
2019-05-18T20:27:46.428Z,11.10
2019-05-18T20:30:17.559Z,10.80
2019-05-18T20:32:47.975Z,11.55
2019-05-18T20:35:18.558Z,10.88
2019-05-18T20:37:49.137Z,10.88
2019-05-18T20:40:19.548Z,11.33
2019-05-18T20:42:50.192Z,10.98
2019-05-18T20:45:20.916Z,10.88
2019-05-18T20:47:51.875Z,10.70
2019-05-18T20:50:22.182Z,10.45
2019-05-18T20:52:52.530Z,10.05
2019-05-18T20:55:25.724Z,9.93
2019-05-18T20:57:56.455Z,9.85
2019-05-18T21:00:27.896Z,10.10
2019-05-18T21:03:03.458Z,10.72
2019-05-18T21:05:39.383Z,9.93
2019-05-18T21:08:09.602Z,10.60
2019-05-18T21:10:39.842Z,10.72
2019-05-18T21:13:10.372Z,9.90
2019-05-18T21:15:40.621Z,10.20
2019-05-18T21:18:10.819Z,10.20
2019-05-18T21:20:41.151Z,9.65
2019-05-18T21:23:11.419Z,9.75
2019-05-18T21:25:41.799Z,10.08
2019-05-18T21:28:12.073Z,9.53
2019-05-18T21:30:42.336Z,9.63
2019-05-18T21:33:13.039Z,8.45
2019-05-18T21:35:43.298Z,9.30
2019-05-18T21:38:13.759Z,9.40
2019-05-18T21:40:44.179Z,9.20
2019-05-18T21:43:14.431Z,9.70
2019-05-18T21:45:44.878Z,9.20
2019-05-18T21:48:15.159Z,9.38
2019-05-18T21:50:45.456Z,9.70
2019-05-18T21:53:15.717Z,10.48
2019-05-18T21:55:46.033Z,9.38
2019-05-18T21:58:16.282Z,9.78
2019-05-18T22:00:49.510Z,9.90
2019-05-18T22:03:19.911Z,9.75
2019-05-18T22:05:50.334Z,9.75
2019-05-18T22:08:20.603Z,9.65
2019-05-18T22:10:50.966Z,9.40
2019-05-18T22:13:21.293Z,9.88
2019-05-18T22:15:51.655Z,9.50
2019-05-18T22:18:24.527Z,9.68
2019-05-18T22:20:53.950Z,9.48
2019-05-18T22:23:24.203Z,9.18
2019-05-18T22:25:57.041Z,8.98
2019-05-18T22:28:26.848Z,9.23
2019-05-18T22:30:57.238Z,9.43
2019-05-18T22:33:27.564Z,9.18
2019-05-18T22:35:57.864Z,9.25
2019-05-18T22:38:28.168Z,9.23
2019-05-18T22:40:58.510Z,9.68
2019-05-18T22:43:28.834Z,9.98
2019-05-18T22:45:59.181Z,9.73
2019-05-18T22:48:40.793Z,8.63
2019-05-18T22:51:01.371Z,9.10
2019-05-18T22:53:31.739Z,8.78
2019-05-18T22:56:02.019Z,8.65
2019-05-18T22:58:32.340Z,8.70
2019-05-18T23:01:03.101Z,8.95
2019-05-18T23:03:33.362Z,8.93
2019-05-18T23:06:03.626Z,8.60
2019-05-18T23:08:33.989Z,8.23
2019-05-18T23:11:04.251Z,8.78
2019-05-18T23:13:34.521Z,9.15
2019-05-18T23:16:05.068Z,8.88
2019-05-18T23:18:35.338Z,9.03
2019-05-18T23:21:05.643Z,8.45
2019-05-18T23:23:36.566Z,8.90
2019-05-18T23:26:06.804Z,8.05
2019-05-18T23:28:37.400Z,8.70
2019-05-18T23:31:08.524Z,8.93
2019-05-18T23:33:38.816Z,8.80
2019-05-18T23:36:09.115Z,9.65
2019-05-18T23:38:39.376Z,8.95
2019-05-18T23:41:09.826Z,9.63
2019-05-18T23:43:40.136Z,9.23
2019-05-18T23:46:10.412Z,9.53
2019-05-18T23:48:40.760Z,9.68
2019-05-18T23:51:11.257Z,9.10
2019-05-18T23:53:41.466Z,9.53
2019-05-18T23:56:11.654Z,9.25
2019-05-18T23:58:42.214Z,9.28
